Time;durP1;ratioP1;P1;durP2;ratioP2;P2;SDS_P1;SDS_P2;PMS_P1;PMS_P2;Temp;Humidity;BMP_temperature;BMP_pressure;BME280_temperature;BME280_humidity;BME280_pressure;Samples;Min_cycle;Max_cycle;Signal;HPM_P1;HPM_P2
2022/05/06 00:01:43;;;;;;;;;;;;;;;13.98;56.68;100436.09;5107257;28;19912;-84
2022/05/06 00:04:09;;;;;;;0.47;0.47;;;;;;;14.10;56.61;100435.88;5106947;28;19963;-84
2022/05/06 00:06:34;;;;;;;;;;;;;;;13.85;57.63;100438.06;5107087;28;20566;-83
2022/05/06 00:09:00;;;;;;;1.05;0.77;;;;;;;13.53;58.24;100391.75;5107287;28;19922;-84
2022/05/06 00:11:25;;;;;;;;;;;;;;;13.84;58.87;100438.97;5107713;28;20040;-84
2022/05/06 00:13:52;;;;;;;1.60;1.35;;;;;;;13.79;58.43;100419.59;5106919;28;19927;-84
2022/05/06 00:16:25;;;;;;;1.40;1.02;;;;;;;13.88;58.45;100423.88;5107211;28;20550;-84
2022/05/06 00:18:52;;;;;;;0.82;0.82;;;;;;;13.91;58.46;100450.34;5106651;28;20035;-84
2022/05/06 00:21:18;;;;;;;1.83;1.70;;;;;;;13.89;58.86;100455.69;5106713;28;20027;-84
2022/05/06 00:23:43;;;;;;;;;;;;;;;13.81;59.29;100464.66;5107419;28;20087;-84
2022/05/06 00:26:09;;;;;;;0.57;0.57;;;;;;;13.68;59.09;100448.06;5106943;28;19923;-83
2022/05/06 00:28:35;;;;;;;1.35;1.27;;;;;;;13.49;58.75;100413.91;5106711;28;20481;-84
2022/05/06 00:31:02;;;;;;;1.10;0.93;;;;;;;13.45;59.41;100411.31;5106623;28;20114;-83
2022/05/06 00:33:28;;;;;;;0.73;0.68;;;;;;;13.58;59.34;100458.81;5106661;28;20030;-84
2022/05/06 00:35:55;;;;;;;0.73;0.73;;;;;;;13.50;58.05;100458.06;5107054;28;20035;-84
2022/05/06 00:38:21;;;;;;;1.25;1.02;;;;;;;13.18;58.57;100430.22;5106637;28;20024;-84
2022/05/06 00:40:46;;;;;;;;;;;;;;;13.32;58.68;100476.84;5107077;28;20032;-85
2022/05/06 00:43:12;;;;;;;1.13;1.02;;;;;;;13.25;58.87;100452.19;5106529;28;19920;-84
2022/05/06 00:45:46;;;;;;;;;;;;;;;13.41;59.39;100474.09;5107082;28;20104;-84
2022/05/06 00:48:13;;;;;;;1.10;1.00;;;;;;;13.41;59.06;100480.28;5106586;28;19985;-84
2022/05/06 00:50:38;;;;;;;0.55;0.55;;;;;;;13.38;59.13;100451.16;5106393;28;20401;-84
2022/05/06 00:53:06;;;;;;;;;;;;;;;13.28;60.05;100465.41;5106885;28;20059;-84
2022/05/06 00:55:34;;;;;;;0.55;0.55;;;;;;;13.24;59.22;100435.44;5106477;28;20389;-82
2022/05/06 00:58:00;;;;;;;0.60;0.60;;;;;;;13.18;59.31;100432.88;5106433;28;20097;-82
2022/05/06 01:00:25;;;;;;;;;;;;;;;13.35;59.12;100468.88;5106947;28;20473;-83
2022/05/06 01:02:50;;;;;;;0.40;0.40;;;;;;;13.24;58.94;100448.69;5106400;28;20324;-82
2022/05/06 01:05:16;;;;;;;0.40;0.40;;;;;;;13.24;59.10;100461.91;5106175;28;20142;-83
2022/05/06 01:07:43;;;;;;;;;;;;;;;13.25;59.80;100481.34;5107327;28;20472;-83
2022/05/06 01:10:10;;;;;;;1.30;1.13;;;;;;;13.06;59.77;100456.88;5108926;28;20384;-83
2022/05/06 01:12:36;;;;;;;0.75;0.75;;;;;;;13.15;59.92;100477.06;5110173;28;20066;-83
2022/05/06 01:15:01;;;;;;;;;;;;;;;12.98;60.06;100479.94;5110686;28;20027;-83
2022/05/06 01:17:27;;;;;;;0.73;0.70;;;;;;;12.75;60.47;100451.09;5110424;28;19907;-83
2022/05/06 01:19:52;;;;;;;;;;;;;;;12.86;60.61;100488.91;5109956;28;20501;-83
2022/05/06 01:22:18;;;;;;;0.70;0.70;;;;;;;12.95;60.33;100480.84;5109854;28;19987;-83
2022/05/06 01:24:44;;;;;;;;;;;;;;;12.98;60.54;100475.50;5110276;28;20035;-83
2022/05/06 01:27:17;;;;;;;0.55;0.47;;;;;;;13.03;61.01;100475.44;5109616;28;20309;-84
2022/05/06 01:29:45;;;;;;;0.75;0.75;;;;;;;12.95;60.88;100469.38;5109616;28;20042;-83
2022/05/06 01:32:11;;;;;;;2.25;0.88;;;;;;;12.84;61.25;100474.81;5110149;28;20039;-84
2022/05/06 01:34:39;;;;;;;;;;;;;;;12.72;61.45;100474.03;5109990;28;20544;-84
2022/05/06 01:37:07;;;;;;;0.40;0.40;;;;;;;12.45;61.47;100438.19;5110169;28;19922;-84
2022/05/06 01:39:39;;;;;;;0.63;0.63;;;;;;;12.67;61.59;100456.47;5109832;28;20088;-84
2022/05/06 01:42:08;;;;;;;0.50;0.50;;;;;;;12.74;61.75;100478.44;5108819;28;20366;-84
2022/05/06 01:44:45;;;;;;;1.30;0.77;;;;;;;12.71;62.14;100477.59;5109023;28;20067;-84
2022/05/06 01:47:17;;;;;;;1.52;0.50;;;;;;;12.69;61.79;100474.06;5109256;28;20115;-84
2022/05/06 01:49:45;;;;;;;1.35;1.25;;;;;;;12.70;61.87;100453.78;5109033;28;20129;-84
2022/05/06 01:52:15;;;;;;;0.50;0.50;;;;;;;12.69;62.39;100475.84;5109851;28;20085;-84
2022/05/06 01:54:41;;;;;;;0.98;0.93;;;;;;;12.44;62.73;100456.72;5109330;28;20036;-84
2022/05/06 01:57:06;;;;;;;;;;;;;;;12.62;62.57;100475.06;5109486;28;20063;-84
2022/05/06 01:59:32;;;;;;;3.55;1.52;;;;;;;12.38;62.77;100457.66;5109382;28;19963;-84
2022/05/06 02:01:57;;;;;;;;;;;;;;;12.43;62.74;100473.47;5109838;28;20027;-83
2022/05/06 02:07:07;;;;;;;1.23;1.13;;;;;;;12.35;63.12;100463.84;5108655;28;20481;-84
2022/05/06 02:09:32;;;;;;;;;;;;;;;12.46;62.37;100474.31;5109524;28;20059;-84
2022/05/06 02:11:58;;;;;;;0.90;0.90;;;;;;;12.30;62.83;100459.50;5108928;28;19918;-83
2022/05/06 02:14:23;;;;;;;;;;;;;;;12.32;62.92;100477.09;5109144;28;20035;-83
2022/05/06 02:16:49;;;;;;;1.13;0.90;;;;;;;12.37;62.95;100482.34;5108908;28;19912;-83
2022/05/06 02:19:14;;;;;;;;;;;;;;;12.36;63.01;100477.97;5109521;28;20481;-83
2022/05/06 02:21:39;;;;;;;;;;;;;;;12.22;63.05;100471.91;5109205;28;19927;-83
2022/05/06 02:24:05;;;;;;;;;;;;;;;11.85;64.25;100478.38;5109128;28;19915;-84
2022/05/06 02:26:31;;;;;;;0.65;0.65;;;;;;;11.80;64.71;100473.13;5108602;28;19972;-84
2022/05/06 02:28:56;;;;;;;0.88;0.85;;;;;;;11.74;65.01;100462.59;5108529;28;20031;-84
2022/05/06 02:34:06;;;;;;;1.20;1.10;;;;;;;11.57;64.99;100423.09;5108181;28;20360;-85
2022/05/06 02:36:31;;;;;;;;;;;;;;;11.88;65.06;100474.81;5108999;28;20028;-83
2022/05/06 02:38:57;;;;;;;0.43;0.43;;;;;;;11.80;65.18;100437.88;5108636;28;19915;-83
2022/05/06 02:41:22;;;;;;;;;;;;;;;11.91;64.93;100477.44;5108826;28;20030;-83
2022/05/06 02:43:48;;;;;;;0.85;0.85;;;;;;;11.93;64.71;100467.78;5090053;28;20451;-84
2022/05/06 02:46:13;;;;;;;;;;;;;;;11.74;65.40;100482.84;5108587;28;20100;-84
2022/05/06 02:48:38;;;;;;;;;;;;;;;11.79;65.81;100479.28;5108492;27;19983;-84
2022/05/06 02:51:04;;;;;;;0.80;0.80;;;;;;;11.86;65.32;100477.47;5108364;28;19960;-84
2022/05/06 02:53:29;;;;;;;;;;;;;;;11.76;65.49;100489.03;5108543;28;20035;-84
2022/05/06 02:55:55;;;;;;;0.70;0.70;;;;;;;11.77;65.43;100482.81;5108046;28;20469;-83
2022/05/06 02:58:20;;;;;;;;;;;;;;;11.79;65.56;100495.16;5108663;28;20080;-83
2022/05/06 03:00:45;;;;;;;;;;;;;;;11.67;65.94;100491.72;5108414;28;19915;-84
2022/05/06 03:03:11;;;;;;;0.80;0.80;;;;;;;11.50;65.94;100462.78;5108210;28;19918;-84
2022/05/06 03:05:37;;;;;;;;;;;;;;;11.62;65.82;100499.69;5108003;28;20035;-84
2022/05/06 03:08:02;;;;;;;;;;;;;;;11.50;66.30;100511.19;5108234;28;19947;-84
2022/05/06 03:10:28;;;;;;;1.08;1.08;;;;;;;11.42;65.96;100457.53;5107739;28;19922;-84
2022/05/06 03:12:56;;;;;;;;;;;;;;;11.53;66.51;100503.25;5108070;28;20042;-83
2022/05/06 03:15:21;;;;;;;1.30;0.70;;;;;;;11.41;66.82;100483.06;5107764;28;19915;-84
2022/05/06 03:17:47;;;;;;;;;;;;;;;11.63;66.48;100517.28;5107637;28;20110;-84
2022/05/06 03:20:13;;;;;;;1.42;1.35;;;;;;;11.35;66.69;100461.97;5107148;28;19912;-84
2022/05/06 03:22:44;;;;;;;;;;;;;;;11.61;67.21;100509.34;5108023;28;20028;-83
2022/05/06 03:25:10;;;;;;;0.88;0.88;;;;;;;11.69;66.73;100504.03;5107733;28;19916;-84
2022/05/06 03:30:20;;;;;;;0.68;0.68;;;;;;;11.77;66.78;100509.25;5107121;28;19919;-83
2022/05/06 03:32:45;;;;;;;;;;;;;;;11.86;67.15;100522.41;5088217;28;20043;-84
2022/05/06 03:35:11;;;;;;;0.68;0.68;;;;;;;11.96;66.70;100507.41;5107881;28;20308;-83
2022/05/06 03:37:38;;;;;;;;;;;;;;;11.92;67.05;100514.47;5107878;28;20032;-83
2022/05/06 03:40:05;;;;;;;2.25;1.58;;;;;;;11.97;66.82;100502.13;5107070;28;19908;-83
2022/05/06 03:42:30;;;;;;;0.63;0.63;;;;;;;11.91;66.65;100501.22;5087840;28;20047;-83
2022/05/06 03:44:56;;;;;;;;;;;;;;;12.10;65.74;100531.97;5107607;28;20413;-84
2022/05/06 03:47:21;;;;;;;;;;;;;;;11.96;66.20;100526.78;5107309;28;20364;-84
2022/05/06 03:51:20;;;;;;;;;;;;;;;12.06;66.40;100526.72;5107760;28;19919;-84
2022/05/06 03:52:32;;;;;;;0.85;0.68;;;;;;;12.16;66.28;100534.56;5106974;28;19907;-83
2022/05/06 03:54:57;;;;;;;;;;;;;;;12.34;66.07;100541.47;5107559;28;20509;-84
2022/05/06 03:57:22;;;;;;;;;;;;;;;12.53;66.22;100533.38;5107552;28;19912;-85
2022/05/06 03:59:48;;;;;;;1.17;0.80;;;;;;;12.67;65.56;100506.78;5088847;28;20378;-84
2022/05/06 04:02:13;;;;;;;;;;;;;;;12.80;65.04;100536.63;5107499;28;20265;-83
2022/05/06 04:04:38;;;;;;;1.40;0.95;;;;;;;12.61;65.15;100504.19;5106358;28;20698;-83
2022/05/06 04:07:04;;;;;;;;;;;;;;;12.84;65.29;100546.28;5108226;28;20495;-84
2022/05/06 04:09:29;;;;;;;1.20;1.13;;;;;;;12.97;64.79;100531.13;5107512;28;20436;-84
2022/05/06 04:11:56;;;;;;;;;;;;;;;13.00;64.68;100539.91;5107736;28;20035;-84
2022/05/06 04:14:21;;;;;;;1.90;0.80;;;;;;;12.95;64.87;100503.81;5106981;28;20014;-84
2022/05/06 04:16:47;;;;;;;;;;;;;;;13.25;64.49;100531.66;5107494;28;20115;-84
2022/05/06 04:19:12;;;;;;;1.70;1.23;;;;;;;13.13;64.53;100523.88;5106733;28;20410;-83
2022/05/06 04:24:21;;;;;;;5.95;2.35;;;;;;;13.47;64.21;100520.81;5106765;28;19926;-84
2022/05/06 04:26:47;;;;;;;;;;;;;;;13.60;63.20;100540.97;5107337;28;20028;-84
2022/05/06 04:29:12;;;;;;;;;;;;;;;13.68;62.62;100541.72;5107511;28;20030;-85
2022/05/06 04:31:38;;;;;;;1.52;0.93;;;;;;;13.65;63.10;100552.38;5089077;28;19947;-84
2022/05/06 04:34:04;;;;;;;1.40;1.23;;;;;;;13.62;63.32;100533.88;5088146;28;20494;-84
2022/05/06 04:36:30;;;;;;;;;;;;;;;13.96;62.69;100539.56;5107372;28;20085;-84
2022/05/06 04:38:55;;;;;;;2.92;1.60;;;;;;;14.05;62.87;100548.28;5106928;28;19916;-84
2022/05/06 04:41:21;;;;;;;;;;;;;;;13.99;62.82;100543.94;5107180;28;20084;-84
2022/05/06 04:43:46;;;;;;;1.60;1.50;;;;;;;13.95;61.99;100516.59;5108244;28;20775;-84
2022/05/06 04:46:11;;;;;;;;;;;;;;;14.11;62.07;100546.38;5111253;28;20536;-84
2022/05/06 04:48:37;;;;;;;;;;;;;;;14.05;61.44;100538.53;5111328;28;19911;-84
2022/05/06 04:51:02;;;;;;;0.55;0.45;;;;;;;14.30;61.43;100536.38;5110553;28;19998;-84
2022/05/06 04:53:28;;;;;;;;;;;;;;;14.42;60.80;100545.88;5111275;28;20035;-84
2022/05/06 04:55:55;;;;;;;2.83;1.85;;;;;;;14.38;60.07;100499.06;5110694;28;19965;-84
2022/05/06 04:58:20;;;;;;;2.58;1.38;;;;;;;14.78;59.91;100545.28;5110395;28;20024;-84
2022/05/06 05:00:46;;;;;;;;;;;;;;;14.78;59.02;100548.81;5111461;28;20037;-85
2022/05/06 05:03:12;;;;;;;3.22;2.35;;;;;;;14.69;59.57;100533.06;5092424;28;20002;-84
2022/05/06 05:05:37;;;;;;;;;;;;;;;14.85;59.72;100555.75;5110724;28;20032;-84
2022/05/06 05:08:03;;;;;;;4.55;2.20;;;;;;;15.02;58.38;100539.47;5110039;28;20406;-84
2022/05/06 05:10:28;;;;;;;;;;;;;;;15.06;59.83;100561.56;5110593;28;20028;-84
2022/05/06 05:12:54;;;;;;;3.10;2.25;;;;;;;14.80;58.12;100506.31;5110018;28;19968;-84
2022/05/06 05:15:19;;;;;;;;;;;;;;;15.19;57.30;100564.84;5110600;28;20035;-84
2022/05/06 05:17:45;;;;;;;;;;;;;;;15.27;55.32;100568.22;5110393;28;19916;-85
2022/05/06 05:20:14;;;;;;;3.60;2.80;;;;;;;15.38;54.07;100562.69;5109946;28;19947;-84
2022/05/06 05:22:40;;;;;;;4.43;2.22;;;;;;;15.21;54.18;100555.97;5109936;28;20031;-84
2022/05/06 05:25:07;;;;;;;1.30;0.85;;;;;;;15.67;51.61;100559.41;5109485;28;20039;-84
2022/05/06 05:27:34;;;;;;;2.35;2.15;;;;;;;15.86;52.14;100572.31;5109746;28;20038;-84
2022/05/06 05:30:00;;;;;;;1.60;1.17;;;;;;;15.91;49.88;100528.75;5110056;28;20114;-85
2022/05/06 05:32:26;;;;;;;1.90;0.93;;;;;;;16.04;47.47;100544.41;5109738;28;20102;-85
2022/05/06 05:34:51;;;;;;;1.35;1.10;;;;;;;16.42;47.02;100555.88;5109617;28;20535;-84
2022/05/06 05:37:17;;;;;;;0.77;0.75;;;;;;;16.60;46.46;100542.09;5109703;28;20051;-84
2022/05/06 05:39:42;;;;;;;;;;;;;;;17.05;45.64;100570.22;5110202;28;20027;-85
2022/05/06 05:42:08;;;;;;;4.53;2.40;;;;;;;16.48;48.61;100558.38;5109601;28;19926;-84
2022/05/06 05:50:02;;;;;;;2.88;1.95;;;;;;;17.11;46.37;100543.38;5109594;28;20077;-84
2022/05/06 05:52:28;;;;;;;3.00;1.75;;;;;;;17.23;48.13;100559.97;5109169;28;20138;-84
2022/05/06 05:54:54;;;;;;;2.03;1.10;;;;;;;17.20;48.87;100531.59;5108477;28;20803;-86
2022/05/06 05:57:20;;;;;;;1.02;0.93;;;;;;;16.91;50.06;100540.44;5109455;28;20031;-84
2022/05/06 05:59:47;;;;;;;;;;;;;;;16.82;49.86;100566.38;5125677;27;20537;-84
2022/05/06 06:02:13;;;;;;;3.22;1.85;;;;;;;17.36;49.03;100561.34;5129455;27;19922;-84
2022/05/06 06:04:41;;;;;;;2.13;1.33;;;;;;;17.13;49.85;100541.56;5129625;27;20099;-85
2022/05/06 06:07:07;;;;;;;4.13;1.90;;;;;;;17.40;48.92;100556.81;5129180;27;20496;-84
2022/05/06 06:09:33;;;;;;;2.17;1.50;;;;;;;17.79;48.65;100562.72;5129237;27;20035;-84
2022/05/06 06:11:58;;;;;;;1.65;1.52;;;;;;;17.51;49.15;100568.91;5129619;27;20031;-84
2022/05/06 06:14:24;;;;;;;2.53;2.05;;;;;;;17.76;48.69;100567.28;5129330;27;20436;-84
2022/05/06 06:16:50;;;;;;;;;;;;;;;17.78;49.29;100570.78;5129819;27;20027;-83
2022/05/06 06:19:16;;;;;;;2.08;1.88;;;;;;;16.87;50.65;100568.97;5129385;27;20385;-84
2022/05/06 06:21:43;;;;;;;3.17;1.48;;;;;;;16.39;52.17;100550.63;5129436;27;20131;-84
2022/05/06 06:24:08;;;;;;;3.15;2.85;;;;;;;16.73;53.13;100544.41;5129008;27;20031;-84
2022/05/06 06:26:34;;;;;;;1.65;1.30;;;;;;;17.15;52.30;100544.19;5129289;27;20030;-84
2022/05/06 06:28:59;;;;;;;2.72;1.77;;;;;;;16.81;51.88;100547.78;5129077;27;20511;-84
2022/05/06 06:31:25;;;;;;;;;;;;;;;16.59;52.50;100569.66;5129473;27;20114;-85
2022/05/06 06:33:50;;;;;;;1.25;1.15;;;;;;;17.08;52.32;100570.13;5129326;27;19908;-84
2022/05/06 06:36:17;;;;;;;3.08;1.52;;;;;;;17.22;51.11;100540.41;5128807;27;20040;-84
2022/05/06 06:38:43;;;;;;;1.17;0.93;;;;;;;17.58;51.88;100529.59;5129123;27;20393;-83
2022/05/06 06:41:09;;;;;;;1.58;1.38;;;;;;;17.54;49.98;100567.94;5129069;27;20038;-84
2022/05/06 06:43:34;;;;;;;5.32;2.38;;;;;;;16.92;50.90;100539.50;5128338;27;20096;-84
2022/05/06 06:46:00;;;;;;;1.90;1.35;;;;;;;16.92;50.24;100535.06;5109977;27;20051;-84
2022/05/06 06:48:25;;;;;;;2.95;1.90;;;;;;;17.44;51.34;100538.00;5128383;27;20113;-83
2022/05/06 06:50:52;;;;;;;;;;;;;;;17.47;51.15;100564.59;5129295;27;20023;-84
2022/05/06 06:53:19;;;;;;;2.30;1.00;;;;;;;17.57;48.87;100538.50;5129507;27;20284;-84
2022/05/06 06:55:44;;;;;;;2.28;2.08;;;;;;;17.52;47.94;100535.97;5128826;27;20137;-84
2022/05/06 06:58:10;;;;;;;2.95;1.83;;;;;;;17.59;49.25;100542.00;5128634;27;20767;-84
2022/05/06 07:00:35;;;;;;;2.17;1.67;;;;;;;18.05;49.67;100548.56;5128725;27;20034;-84
2022/05/06 07:03:01;;;;;;;1.75;1.38;;;;;;;17.91;46.87;100553.50;5128102;27;20027;-84
2022/05/06 07:05:26;;;;;;;1.83;0.95;;;;;;;17.82;48.23;100530.59;5127986;27;20042;-84
2022/05/06 07:13:20;;;;;;;2.17;1.42;;;;;;;18.23;47.19;100541.78;5128181;27;20512;-84
2022/05/06 07:15:45;;;;;;;3.30;1.98;;;;;;;18.38;49.39;100503.00;5127806;27;20031;-83
2022/05/06 07:18:11;;;;;;;2.47;1.60;;;;;;;19.11;45.09;100538.72;5127915;27;20027;-84
2022/05/06 07:20:36;;;;;;;1.85;1.23;;;;;;;18.91;45.55;100514.53;5128039;27;20019;-84
2022/05/06 07:23:03;;;;;;;2.50;2.03;;;;;;;19.11;46.32;100520.00;5127945;27;20071;-84
2022/05/06 07:25:30;;;;;;;2.10;1.55;;;;;;;18.91;46.87;100519.88;5127755;27;20034;-84
2022/05/06 07:27:55;;;;;;;3.75;2.25;;;;;;;18.78;44.98;100549.69;5109596;27;20488;-84
2022/05/06 07:30:21;;;;;;;2.15;1.30;;;;;;;19.08;47.18;100536.19;5124519;27;20027;-83
2022/05/06 07:32:47;;;;;;;2.70;1.73;;;;;;;19.75;44.53;100504.19;5124864;27;20046;-83
2022/05/06 07:35:13;;;;;;;2.65;1.48;;;;;;;19.98;46.37;100528.25;5128250;27;20027;-84
2022/05/06 07:37:38;;;;;;;1.73;1.25;;;;;;;19.79;44.61;100520.13;5128048;27;20167;-83
2022/05/06 07:40:05;;;;;;;6.10;2.38;;;;;;;20.04;43.37;100527.16;5127852;27;20031;-84
2022/05/06 07:42:33;;;;;;;3.47;1.92;;;;;;;19.93;46.56;100526.72;5127888;27;20051;-84
2022/05/06 07:44:59;;;;;;;2.17;1.75;;;;;;;20.61;43.45;100522.06;5127442;27;20194;-85
2022/05/06 07:47:25;;;;;;;8.75;2.40;;;;;;;21.11;45.86;100488.59;5127554;27;20065;-84
2022/05/06 07:49:51;;;;;;;2.45;1.65;;;;;;;21.71;44.29;100514.44;5128013;27;20046;-84
2022/05/06 07:52:17;;;;;;;4.45;2.65;;;;;;;22.06;44.55;100514.50;5126822;27;20918;-83
2022/05/06 07:54:42;;;;;;;1.60;1.40;;;;;;;22.32;41.42;100522.19;5119008;27;20027;-84
2022/05/06 07:57:08;;;;;;;2.67;1.92;;;;;;;22.02;41.83;100526.38;5127615;28;20110;-84
2022/05/06 07:59:33;;;;;;;3.80;2.20;;;;;;;22.27;42.62;100528.69;5127418;28;20031;-84
2022/05/06 08:04:48;;;;;;;1.67;1.48;;;;;;;22.06;41.83;100523.47;5127096;28;20038;-82
2022/05/06 08:07:14;;;;;;;3.08;1.55;;;;;;;22.42;41.57;100530.63;5127488;28;20092;-82
2022/05/06 08:09:39;;;;;;;3.42;1.85;;;;;;;21.69;42.77;100494.84;5127548;28;20031;-83
2022/05/06 08:12:06;;;;;;;3.83;2.45;;;;;;;21.94;42.76;100519.56;5127438;28;20070;-81
2022/05/06 08:14:31;;;;;;;2.85;2.22;;;;;;;22.46;41.02;100526.84;5127363;28;20619;-84
2022/05/06 08:16:57;;;;;;;5.90;2.63;;;;;;;22.04;38.80;100486.88;5127562;28;20114;-84
2022/05/06 08:19:23;;;;;;;3.67;1.85;;;;;;;22.79;40.99;100546.69;5130713;27;20058;-83
2022/05/06 08:21:49;;;;;;;3.65;2.05;;;;;;;21.61;41.21;100525.63;5131826;27;20039;-86
2022/05/06 08:24:15;;;;;;;2.95;1.85;;;;;;;22.00;42.20;100540.75;5131274;27;20114;-83
2022/05/06 08:26:40;;;;;;;3.35;2.25;;;;;;;21.82;40.95;100522.84;5131250;27;20117;-84
2022/05/06 08:29:06;;;;;;;2.88;2.50;;;;;;;21.01;44.50;100541.78;5131586;27;20528;-84
2022/05/06 08:31:40;;;;;;;3.70;2.42;;;;;;;21.22;43.87;100541.75;5131486;27;20035;-83
2022/05/06 08:34:10;;;;;;;3.03;2.20;;;;;;;21.10;42.98;100505.59;5131539;27;20084;-82
2022/05/06 08:36:37;;;;;;;2.00;1.48;;;;;;;21.02;43.04;100530.13;5131025;27;20160;-82
2022/05/06 08:39:04;;;;;;;2.75;1.77;;;;;;;20.44;42.45;100525.47;5117171;27;20429;-82
2022/05/06 08:41:31;;;;;;;3.45;1.80;;;;;;;20.46;43.57;100512.88;5110733;28;20028;-82
2022/05/06 08:43:58;;;;;;;6.07;3.92;;;;;;;20.95;45.00;100538.53;5110766;28;20505;-83
2022/05/06 08:51:56;;;;;;;3.15;2.35;;;;;;;21.13;43.80;100504.59;5110383;28;20092;-82
2022/05/06 08:54:22;;;;;;;2.15;1.95;;;;;;;21.43;43.82;100537.19;5110515;28;20101;-83
2022/05/06 08:56:48;;;;;;;1.77;1.63;;;;;;;21.15;43.94;100526.84;5110430;28;20050;-83
2022/05/06 08:59:13;;;;;;;4.13;2.47;;;;;;;21.29;42.68;100505.66;5110251;28;20039;-82
2022/05/06 09:01:39;;;;;;;3.10;2.53;;;;;;;21.72;40.88;100509.00;5110322;28;20063;-83
2022/05/06 09:04:05;;;;;;;2.55;2.03;;;;;;;22.05;41.56;100512.78;5109659;28;20149;-83
2022/05/06 09:06:32;;;;;;;2.75;2.08;;;;;;;21.63;43.79;100483.47;5109929;28;20505;-82
2022/05/06 09:08:59;;;;;;;3.13;2.20;;;;;;;22.26;40.17;100487.53;5110431;28;20035;-83
2022/05/06 09:14:20;;;;;;;3.30;2.05;;;;;;;22.59;40.64;100516.31;5110174;28;20516;-83
2022/05/06 09:16:46;;;;;;;3.25;2.65;;;;;;;23.00;40.37;100523.16;5109663;28;20027;-83
2022/05/06 09:19:24;;;;;;;5.15;2.50;;;;;;;23.27;40.84;100510.06;5110096;28;20039;-83
2022/05/06 09:22:09;;;;;;;7.30;3.67;;;;;;;23.24;39.34;100512.91;5109991;28;20023;-83
2022/05/06 09:24:37;;;;;;;3.92;2.80;;;;;;;22.63;41.33;100509.84;5109618;28;20062;-82
2022/05/06 09:27:23;;;;;;;3.15;2.58;;;;;;;22.80;38.91;100508.97;5128383;27;20530;-82
2022/05/06 09:29:50;;;;;;;4.32;2.72;;;;;;;22.98;39.09;100485.56;5129143;27;20508;-83
2022/05/06 09:32:25;;;;;;;3.58;2.53;;;;;;;23.34;38.36;100497.13;5130154;27;20080;-83
2022/05/06 09:34:56;;;;;;;4.55;3.28;;;;;;;23.27;38.24;100450.84;5130042;27;20628;-83
2022/05/06 09:37:28;;;;;;;3.47;2.50;;;;;;;23.83;39.68;100490.78;5129644;27;20511;-83
2022/05/06 09:40:07;;;;;;;4.70;3.65;;;;;;;23.31;40.64;100483.81;5130177;27;20027;-83
2022/05/06 09:42:37;;;;;;;2.67;2.40;;;;;;;23.74;39.89;100455.34;5130152;27;20063;-83
2022/05/06 09:45:03;;;;;;;3.95;2.78;;;;;;;23.49;38.23;100463.09;5130525;27;20035;-82
2022/05/06 09:47:32;;;;;;;2.85;2.33;;;;;;;23.99;40.88;100471.94;5129801;27;20515;-83
2022/05/06 09:49:57;;;;;;;3.10;1.88;;;;;;;24.03;38.11;100468.97;5129542;27;20059;-83
2022/05/06 09:52:23;;;;;;;4.18;2.65;;;;;;;23.59;38.77;100446.31;5130123;27;20077;-82
2022/05/06 09:54:48;;;;;;;3.25;2.33;;;;;;;23.83;37.81;100455.78;5129589;27;20038;-83
2022/05/06 09:57:16;;;;;;;3.80;2.70;;;;;;;24.05;39.28;100463.47;5129659;27;20050;-83
2022/05/06 09:59:42;;;;;;;3.42;2.13;;;;;;;24.05;37.26;100428.44;5129682;27;20525;-83
2022/05/06 10:02:08;;;;;;;2.67;1.55;;;;;;;24.54;36.98;100459.66;5129643;27;20031;-83
2022/05/06 10:04:35;;;;;;;8.45;1.67;;;;;;;24.22;37.79;100422.06;5129396;27;20512;-83
2022/05/06 10:07:03;;;;;;;3.38;1.58;;;;;;;24.17;37.24;100443.03;5129854;27;20027;-83
2022/05/06 10:09:34;;;;;;;3.85;1.90;;;;;;;23.86;37.10;100450.22;5110634;27;20067;-82
2022/05/06 10:12:02;;;;;;;3.80;1.73;;;;;;;23.43;38.43;100413.16;5129683;27;20070;-83
2022/05/06 10:14:29;;;;;;;3.50;1.85;;;;;;;24.13;38.24;100432.44;5129407;27;20042;-82
2022/05/06 10:16:55;;;;;;;2.25;1.80;;;;;;;24.03;37.06;100433.94;5129116;27;20062;-83
2022/05/06 10:19:44;;;;;;;2.80;1.65;;;;;;;24.10;37.17;100434.44;5129152;27;20027;-83
2022/05/06 10:22:10;;;;;;;3.67;1.48;;;;;;;24.05;36.03;100439.22;5110716;27;20124;-84
2022/05/06 10:24:49;;;;;;;3.65;1.58;;;;;;;23.40;36.94;100407.94;5129670;27;20039;-82
2022/05/06 10:33:16;;;;;;;1.30;1.13;;;;;;;23.63;34.72;100387.75;5128771;27;20110;-83
2022/05/06 10:35:47;;;;;;;3.75;1.02;;;;;;;23.90;36.28;100411.41;5129209;27;20028;-83
2022/05/06 10:38:46;;;;;;;2.30;1.45;;;;;;;23.87;34.48;100412.44;5129063;27;20038;-83
2022/05/06 10:41:22;;;;;;;3.33;1.65;;;;;;;24.01;35.33;100397.28;5118815;27;20040;-83
2022/05/06 10:43:50;;;;;;;2.65;2.03;;;;;;;24.08;32.83;100391.44;5108259;28;20043;-82
2022/05/06 10:46:37;;;;;;;1.40;1.13;;;;;;;23.84;32.96;100380.28;5108112;28;20027;-81
2022/05/06 10:49:39;;;;;;;2.70;1.58;;;;;;;23.45;33.23;100399.59;5108675;28;20092;-81
2022/05/06 10:52:14;;;;;;;0.82;0.63;;;;;;;23.32;33.04;100392.22;5110631;27;20428;-82
2022/05/06 10:54:44;;;;;;;0.63;0.50;;;;;;;23.57;33.72;100354.00;5107718;28;20036;-81
2022/05/06 10:57:10;;;;;;;1.50;1.00;;;;;;;23.01;33.91;100352.72;5107949;28;20814;-83
2022/05/06 10:59:55;;;;;;;2.00;0.93;;;;;;;23.39;31.51;100387.38;5108125;28;20027;-84
2022/05/06 11:02:21;;;;;;;;;;;;;;;23.91;31.16;100373.59;5108485;28;20028;-83
2022/05/06 11:04:51;;;;;;;1.67;1.58;;;;;;;23.78;32.11;100364.47;5107581;28;20767;-81
2022/05/06 11:07:19;;;;;;;1.48;1.25;;;;;;;23.80;33.03;100350.91;5107662;28;20031;-84
2022/05/06 11:09:46;;;;;;;0.60;0.60;;;;;;;24.18;32.36;100362.09;5107853;28;20114;-83
2022/05/06 11:12:27;;;;;;;1.67;1.20;;;;;;;24.75;34.32;100360.41;5107789;28;20035;-83
2022/05/06 11:14:59;;;;;;;2.22;0.98;;;;;;;25.10;32.36;100360.84;5107817;28;20048;-83
2022/05/06 11:17:25;;;;;;;1.55;0.90;;;;;;;24.47;30.75;100354.03;5089135;28;20034;-82
2022/05/06 11:19:54;;;;;;;0.90;0.77;;;;;;;24.04;31.63;100327.91;5107533;28;20031;-83
2022/05/06 11:22:23;;;;;;;1.80;1.30;;;;;;;24.21;30.97;100328.69;5107469;28;20409;-84
2022/05/06 11:24:54;;;;;;;1.55;1.08;;;;;;;24.29;31.16;100307.50;5126036;27;20031;-84
2022/05/06 11:27:20;;;;;;;0.80;0.77;;;;;;;24.47;30.40;100324.38;5128430;27;20039;-83
2022/05/06 11:29:50;;;;;;;0.90;0.75;;;;;;;24.15;29.68;100321.84;5127815;27;20087;-84
2022/05/06 11:32:17;;;;;;;1.42;0.90;;;;;;;24.73;29.64;100322.75;5128117;27;20057;-83
2022/05/06 11:35:01;;;;;;;2.05;1.02;;;;;;;24.31;29.42;100337.91;5128184;27;20031;-83
2022/05/06 11:37:33;;;;;;;1.38;1.23;;;;;;;23.86;27.56;100326.31;5127802;27;20027;-83
2022/05/06 11:42:43;;;;;;;2.00;0.60;;;;;;;24.24;25.72;100296.16;5128291;27;20054;-83
2022/05/06 11:48:12;;;;;;;1.48;0.82;;;;;;;24.11;28.09;100306.81;5127701;27;20535;-82
2022/05/06 11:50:40;;;;;;;1.13;0.90;;;;;;;24.08;28.19;100305.19;5127769;27;20039;-83
2022/05/06 11:53:10;;;;;;;1.83;0.82;;;;;;;24.21;28.42;100309.84;5126668;27;20035;-83
2022/05/06 11:55:37;;;;;;;1.75;1.13;;;;;;;24.11;27.02;100291.53;5127634;27;20035;-83
2022/05/06 11:58:07;;;;;;;2.67;0.95;;;;;;;24.06;26.40;100312.50;5108903;28;20432;-82
2022/05/06 12:00:34;;;;;;;0.90;0.70;;;;;;;23.86;26.32;100308.31;5127741;28;20054;-82
2022/05/06 12:03:05;;;;;;;1.15;0.88;;;;;;;23.70;24.90;100305.66;5127258;28;20753;-82
2022/05/06 12:05:33;;;;;;;5.65;0.73;;;;;;;24.07;25.91;100306.16;5127610;28;20142;-83
2022/05/06 12:07:58;;;;;;;1.27;0.80;;;;;;;24.37;28.50;100283.63;5127834;28;20026;-82
2022/05/06 12:10:24;;;;;;;0.98;0.77;;;;;;;24.23;27.22;100300.66;5127501;28;20027;-83
2022/05/06 12:13:06;;;;;;;1.98;0.80;;;;;;;24.02;26.54;100277.75;5112545;28;20750;-84
2022/05/06 12:15:37;;;;;;;0.80;0.73;;;;;;;24.18;26.63;100293.84;5106822;28;20036;-83
2022/05/06 12:18:02;;;;;;;2.08;0.90;;;;;;;24.39;27.09;100297.00;5106658;28;20032;-83
2022/05/06 12:20:33;;;;;;;1.15;1.00;;;;;;;24.16;27.36;100275.09;5106742;28;20038;-83
2022/05/06 12:22:59;;;;;;;1.02;0.73;;;;;;;24.41;27.05;100276.22;5106994;28;20130;-83
2022/05/06 12:25:26;;;;;;;1.67;1.17;;;;;;;24.41;27.73;100277.09;5106912;28;20040;-85